Time;durP1;ratioP1;P1;durP2;ratioP2;P2;SDS_P1;SDS_P2;PMS_P1;PMS_P2;Temp;Humidity;BMP_temperature;BMP_pressure;BME280_temperature;BME280_humidity;BME280_pressure;Samples;Min_cycle;Max_cycle;Signal;HPM_P1;HPM_P2
2023/04/11 00:00:17;;;;;;;2.88;1.13;;;;;;;10.09;86.90;92728.94;2509893;23;20013;-82
2023/04/11 00:01:24;;;;;;;2.85;1.30;;;;;;;10.01;87.67;92728.38;2513497;23;20014;-83
2023/04/11 00:02:29;;;;;;;2.78;1.35;;;;;;;10.26;85.69;92718.97;2515481;23;20015;-84
2023/04/11 00:03:45;;;;;;;1.42;1.27;;;;;;;10.25;84.72;92718.22;2523115;23;20345;-85
2023/04/11 00:04:46;;;;;;;1.30;1.10;;;;;;;10.31;83.45;92721.13;2522124;23;20091;-86
2023/04/11 00:05:53;;;;;;;3.88;1.08;;;;;;;10.33;83.85;92722.22;2534065;23;20009;-84
2023/04/11 00:06:58;;;;;;;3.95;1.45;;;;;;;10.21;85.79;92712.19;2521837;23;20007;-83
2023/04/11 00:08:00;;;;;;;1.42;1.08;;;;;;;10.37;83.06;92708.75;2511757;23;20026;-83
2023/04/11 00:09:09;;;;;;;2.20;1.25;;;;;;;10.25;85.02;92712.88;2527636;23;20013;-83
2023/04/11 00:10:17;;;;;;;1.90;1.30;;;;;;;10.35;84.00;92711.09;2512777;23;20012;-83
2023/04/11 00:11:18;;;;;;;2.80;1.20;;;;;;;10.32;84.41;92707.38;2510942;23;20022;-84
2023/04/11 00:12:19;;;;;;;1.23;1.00;;;;;;;10.21;86.50;92714.13;2508813;23;20010;-81
2023/04/11 00:13:22;;;;;;;2.67;1.15;;;;;;;10.27;84.74;92712.44;2520411;23;20480;-84
2023/04/11 00:14:44;;;;;;;2.05;1.20;;;;;;;10.21;85.55;92700.78;2521834;23;20014;-86
2023/04/11 00:15:54;;;;;;;2.72;1.42;;;;;;;10.28;85.54;92713.97;2512722;23;20007;-82
2023/04/11 00:17:02;;;;;;;2.25;1.40;;;;;;;10.45;83.43;92714.66;2522439;23;20063;-84
2023/04/11 00:18:14;;;;;;;1.20;1.10;;;;;;;10.34;87.08;92714.94;2539942;23;20005;-82
2023/04/11 00:19:36;;;;;;;3.05;1.38;;;;;;;10.30;90.18;92700.94;2524124;23;20030;-82
2023/04/11 00:20:37;;;;;;;2.88;1.30;;;;;;;10.17;95.78;92705.47;2521977;23;20105;-86
2023/04/11 00:21:39;;;;;;;2.60;1.23;;;;;;;10.30;95.56;92711.63;2532684;23;20072;-84
2023/04/11 00:22:40;;;;;;;3.60;1.52;;;;;;;10.18;100.00;92710.38;2532297;23;20010;-83
2023/04/11 00:23:41;;;;;;;5.22;1.70;;;;;;;10.01;100.00;92701.69;2521217;23;20061;-83
2023/04/11 00:24:44;;;;;;;3.70;1.27;;;;;;;9.84;100.00;92695.63;2545986;23;19997;-84
2023/04/11 00:25:45;;;;;;;2.25;1.60;;;;;;;9.78;100.00;92691.94;2544226;23;20064;-84
2023/04/11 00:26:46;;;;;;;1.70;1.45;;;;;;;9.68;100.00;92700.25;2519984;23;20013;-85
2023/04/11 00:27:47;;;;;;;8.27;2.30;;;;;;;9.55;100.00;92689.50;2520039;23;20006;-83
2023/04/11 00:28:49;;;;;;;2.88;1.38;;;;;;;9.66;100.00;92673.22;2520977;23;20006;-85
2023/04/11 00:29:51;;;;;;;4.57;1.70;;;;;;;9.62;100.00;92669.91;2532373;23;20592;-84
2023/04/11 00:30:53;;;;;;;4.53;1.75;;;;;;;9.40;100.00;92664.34;2530972;23;19994;-85
2023/04/11 00:31:55;;;;;;;2.13;1.50;;;;;;;9.35;100.00;92652.28;2537705;23;20576;-83
2023/04/11 00:32:57;;;;;;;3.40;1.90;;;;;;;9.31;100.00;92648.94;2510080;23;20007;-84
2023/04/11 00:33:58;;;;;;;1.70;1.60;;;;;;;9.16;100.00;92651.19;2509185;23;20381;-85
2023/04/11 00:35:02;;;;;;;1.92;1.50;;;;;;;9.15;100.00;92654.28;2520842;23;20033;-85
2023/04/11 00:36:07;;;;;;;1.88;1.70;;;;;;;9.13;100.00;92646.72;2522724;23;20076;-83
2023/04/11 00:37:09;;;;;;;2.13;1.58;;;;;;;9.01;100.00;92642.78;2512030;23;20303;-82
2023/04/11 00:38:10;;;;;;;1.63;1.52;;;;;;;9.01;100.00;92647.38;2522273;23;20002;-83
2023/04/11 00:39:13;;;;;;;2.75;1.50;;;;;;;9.10;100.00;92644.13;2527795;23;20476;-84
2023/04/11 00:40:17;;;;;;;2.95;1.50;;;;;;;8.95;100.00;92639.09;2516397;23;20066;-82
2023/04/11 00:41:20;;;;;;;2.50;1.38;;;;;;;8.99;100.00;92629.13;2542929;23;20002;-82
2023/04/11 00:42:22;;;;;;;2.78;1.73;;;;;;;9.34;100.00;92648.09;2542099;23;20017;-85
2023/04/11 00:43:26;;;;;;;2.00;1.65;;;;;;;9.30;100.00;92642.09;2514098;23;20014;-86
2023/04/11 00:44:27;;;;;;;5.75;2.03;;;;;;;9.17;100.00;92641.28;2510895;23;20374;-85
2023/04/11 00:45:32;;;;;;;2.50;1.70;;;;;;;9.20;100.00;92635.09;2521862;23;20010;-85
2023/04/11 00:46:36;;;;;;;2.35;1.55;;;;;;;9.10;100.00;92642.19;2522733;23;20010;-86
2023/04/11 00:47:43;;;;;;;1.65;1.38;;;;;;;9.14;100.00;92650.13;2511236;23;20046;-85
2023/04/11 00:48:48;;;;;;;2.28;1.67;;;;;;;9.06;100.00;92642.28;2525322;23;20093;-84
2023/04/11 00:49:57;;;;;;;2.03;1.60;;;;;;;9.11;100.00;92650.94;2524529;23;20017;-84
2023/04/11 00:50:58;;;;;;;2.55;1.52;;;;;;;9.05;100.00;92648.03;2517257;23;20007;-83
2023/04/11 00:52:05;;;;;;;2.03;1.58;;;;;;;9.37;100.00;92631.25;2517258;23;20002;-84
2023/04/11 00:53:17;;;;;;;2.97;1.60;;;;;;;9.21;100.00;92633.94;2511777;23;20030;-85
2023/04/11 00:54:22;;;;;;;2.05;1.60;;;;;;;9.21;100.00;92623.28;2513582;23;20041;-83
2023/04/11 00:55:31;;;;;;;3.38;1.63;;;;;;;9.37;100.00;92619.84;2526170;23;19998;-85
2023/04/11 00:56:36;;;;;;;2.15;1.60;;;;;;;9.30;100.00;92610.09;2522188;23;20098;-84
2023/04/11 00:57:37;;;;;;;4.63;1.70;;;;;;;9.14;100.00;92607.47;2522402;23;20010;-85
2023/04/11 00:58:54;;;;;;;3.28;1.60;;;;;;;9.00;100.00;92622.63;2512802;23;20142;-84
2023/04/11 00:59:57;;;;;;;5.20;1.60;;;;;;;8.98;100.00;92611.63;2523043;23;20017;-82
2023/04/11 01:01:07;;;;;;;2.45;1.83;;;;;;;9.13;100.00;92611.28;2525172;23;20002;-84
2023/04/11 01:02:10;;;;;;;5.68;1.75;;;;;;;9.06;100.00;92612.22;2535877;23;20143;-85
2023/04/11 01:03:25;;;;;;;;;;;;;;;;;;;;;
2023/04/11 01:04:36;;;;;;;2.67;1.75;;;;;;;9.19;100.00;92630.94;2527963;23;20006;-85
2023/04/11 01:05:41;;;;;;;3.28;1.73;;;;;;;9.04;100.00;92638.53;2522921;23;20017;-83
2023/04/11 01:06:51;;;;;;;2.08;1.50;;;;;;;8.97;100.00;92652.03;2511991;23;20397;-84
2023/04/11 01:07:54;;;;;;;1.50;1.40;;;;;;;9.01;100.00;92655.38;2511573;23;20327;-86
2023/04/11 01:09:03;;;;;;;2.70;1.63;;;;;;;8.99;100.00;92647.03;2522157;23;20109;-84
2023/04/11 01:10:11;;;;;;;3.28;1.60;;;;;;;9.24;100.00;92652.53;2516217;23;20006;-83
2023/04/11 01:11:21;;;;;;;3.47;1.77;;;;;;;9.24;100.00;92633.84;2514320;23;20007;-85
2023/04/11 01:12:38;;;;;;;2.90;1.80;;;;;;;9.29;100.00;92629.94;2537563;23;20012;-84
2023/04/11 01:13:51;;;;;;;3.72;1.83;;;;;;;9.20;100.00;92632.44;2533210;23;20440;-85
2023/04/11 01:15:05;;;;;;;2.30;1.50;;;;;;;9.44;100.00;92628.41;2525148;23;20085;-85
2023/04/11 01:16:20;;;;;;;4.18;1.60;;;;;;;9.46;100.00;92642.06;2533635;23;20034;-84
2023/04/11 01:17:52;;;;;;;3.97;1.42;;;;;;;9.68;100.00;92646.88;2520877;23;20040;-84
2023/04/11 01:19:05;;;;;;;3.47;1.55;;;;;;;9.54;100.00;92648.72;2542607;23;20029;-82
2023/04/11 01:20:22;;;;;;;2.97;1.63;;;;;;;9.43;100.00;92656.25;2524486;23;20081;-84
2023/04/11 01:21:41;;;;;;;2.10;1.88;;;;;;;9.66;100.00;92641.19;2527520;23;20329;-84
2023/04/11 01:23:10;;;;;;;2.65;1.90;;;;;;;9.53;100.00;92655.25;2538779;23;19998;-84
2023/04/11 01:24:45;;;;;;;4.18;1.65;;;;;;;9.74;100.00;92642.50;2527956;23;20010;-85
2023/04/11 01:25:47;;;;;;;2.70;1.90;;;;;;;9.71;100.00;92665.47;2513336;23;20041;-84
2023/04/11 01:26:48;;;;;;;3.75;1.75;;;;;;;9.76;100.00;92656.19;2522739;23;20085;-84
2023/04/11 01:27:51;;;;;;;2.50;1.58;;;;;;;9.78;100.00;92630.56;2522402;23;20100;-86
2023/04/11 01:28:54;;;;;;;3.05;1.73;;;;;;;9.80;100.00;92635.50;2533699;23;20005;-84
2023/04/11 01:29:55;;;;;;;3.70;1.90;;;;;;;9.81;100.00;92631.66;2511669;23;20006;-84
2023/04/11 01:31:02;;;;;;;4.88;1.80;;;;;;;9.71;100.00;92624.69;2515062;23;20017;-83
2023/04/11 01:32:04;;;;;;;2.55;1.65;;;;;;;9.65;100.00;92639.69;2512988;23;20010;-84
2023/04/11 01:33:14;;;;;;;3.00;1.80;;;;;;;9.62;100.00;92619.22;2523674;23;20409;-83
2023/04/11 01:34:38;;;;;;;2.38;1.73;;;;;;;9.70;100.00;92628.50;2537008;23;20033;-83
2023/04/11 01:35:40;;;;;;;2.53;1.23;;;;;;;9.75;100.00;92630.69;2525559;23;20016;-85
2023/04/11 01:36:59;;;;;;;4.47;2.28;;;;;;;9.95;100.00;92633.19;2523961;23;20014;-86
2023/04/11 01:38:04;;;;;;;4.07;1.60;;;;;;;9.81;100.00;92623.66;2525657;23;20017;-85
2023/04/11 01:39:11;;;;;;;3.45;1.60;;;;;;;9.71;100.00;92616.69;2523537;23;20037;-85
2023/04/11 01:40:26;;;;;;;1.80;1.58;;;;;;;10.00;100.00;92616.66;2533612;23;20444;-83
2023/04/11 01:41:32;;;;;;;2.05;1.58;;;;;;;9.91;100.00;92614.59;2529309;23;20002;-84
2023/04/11 01:42:37;;;;;;;3.05;2.05;;;;;;;9.73;100.00;92606.31;2536591;23;20499;-85
2023/04/11 01:43:43;;;;;;;4.22;1.83;;;;;;;9.88;100.00;92617.34;2545055;23;20013;-83
2023/04/11 01:44:44;;;;;;;4.82;1.60;;;;;;;9.59;100.00;92608.19;2521698;23;20006;-85
2023/04/11 01:45:46;;;;;;;3.10;2.00;;;;;;;9.46;100.00;92609.31;2521867;23;20003;-84
2023/04/11 01:46:47;;;;;;;4.00;1.83;;;;;;;9.45;100.00;92603.25;2525438;23;20022;-84
2023/04/11 01:47:50;;;;;;;3.72;2.03;;;;;;;9.23;100.00;92616.34;2538899;23;20567;-81
2023/04/11 01:48:54;;;;;;;2.00;1.80;;;;;;;9.11;100.00;92606.38;2545938;23;20005;-84
2023/04/11 01:49:55;;;;;;;3.50;1.45;;;;;;;9.12;100.00;92618.53;2533335;23;20053;-83
2023/04/11 01:50:57;;;;;;;3.03;1.60;;;;;;;9.17;100.00;92627.94;2521631;23;20006;-84
2023/04/11 01:51:59;;;;;;;2.10;1.88;;;;;;;8.97;100.00;92623.47;2521515;23;20219;-84
2023/04/11 01:53:01;;;;;;;2.25;1.40;;;;;;;9.08;100.00;92618.59;2514749;23;19991;-84
2023/04/11 01:54:02;;;;;;;3.85;1.85;;;;;;;8.93;100.00;92625.47;2509452;23;20346;-83
2023/04/11 01:55:04;;;;;;;4.82;1.80;;;;;;;8.87;100.00;92635.13;2521287;23;20017;-86
2023/04/11 01:56:06;;;;;;;1.65;1.55;;;;;;;8.79;100.00;92631.88;2533131;23;20364;-85
2023/04/11 01:57:09;;;;;;;3.67;1.98;;;;;;;8.73;100.00;92632.78;2521135;23;20002;-84
2023/04/11 01:58:10;;;;;;;2.72;1.70;;;;;;;8.69;100.00;92637.44;2520669;23;20440;-84
2023/04/11 01:59:11;;;;;;;7.80;2.22;;;;;;;9.00;100.00;92648.53;2521455;23;20032;-85
2023/04/11 02:00:13;;;;;;;2.65;1.60;;;;;;;9.05;100.00;92656.03;2521773;23;20081;-84
2023/04/11 02:01:22;;;;;;;4.10;1.50;;;;;;;9.16;100.00;92650.44;2520893;23;20089;-84
2023/04/11 02:02:29;;;;;;;5.20;2.00;;;;;;;9.04;100.00;92646.53;2536912;23;20002;-83
2023/04/11 02:03:33;;;;;;;4.07;1.70;;;;;;;8.90;100.00;92652.19;2545015;23;20497;-84
2023/04/11 02:04:35;;;;;;;3.10;1.85;;;;;;;8.97;100.00;92652.03;2521593;23;20370;-84
2023/04/11 02:05:40;;;;;;;3.38;2.00;;;;;;;8.88;100.00;92636.63;2520940;23;20039;-84
2023/04/11 02:06:41;;;;;;;3.75;2.00;;;;;;;8.81;100.00;92647.44;2532496;23;20009;-85
2023/04/11 02:07:42;;;;;;;4.82;2.20;;;;;;;8.71;100.00;92645.78;2521851;23;20006;-83
2023/04/11 02:09:08;;;;;;;2.17;1.73;;;;;;;8.78;100.00;92634.94;2534082;23;20009;-84
2023/04/11 02:10:16;;;;;;;3.95;2.10;;;;;;;8.56;100.00;92638.09;2519192;23;20872;-85
2023/04/11 02:11:21;;;;;;;2.65;1.90;;;;;;;8.62;100.00;92643.69;2533762;23;20216;-85
2023/04/11 02:12:28;;;;;;;3.45;1.70;;;;;;;8.67;100.00;92639.78;2534331;23;20089;-84
2023/04/11 02:13:36;;;;;;;2.63;1.77;;;;;;;8.53;100.00;92636.25;2523309;23;20060;-85
2023/04/11 02:14:48;;;;;;;2.38;1.73;;;;;;;8.49;100.00;92632.91;2533412;23;20028;-84
2023/04/11 02:15:54;;;;;;;3.47;1.40;;;;;;;8.55;100.00;92631.25;2523115;23;20074;-85
2023/04/11 02:16:59;;;;;;;4.00;1.48;;;;;;;8.48;100.00;92638.66;2522829;23;20081;-85
2023/04/11 02:20:22;;;;;;;;;;;;;;;8.33;100.00;92630.19;2117574;27;20623;-78
2023/04/11 02:21:31;;;;;;;2.35;1.48;;;;;;;8.23;100.00;92613.28;2109574;28;20436;-78
2023/04/11 02:23:03;;;;;;;1.85;1.35;;;;;;;8.35;100.00;92603.91;2115121;28;20039;-78
2023/04/11 02:29:48;;;;;;;1.10;1.00;;;;;;;8.27;100.00;92611.28;2047988;28;20143;-79
2023/04/11 02:34:55;;;;;;;;;;;;;;;;;;;;;
2023/04/11 02:36:25;;;;;;;3.75;1.10;;;;;;;8.39;100.00;92620.59;2037219;29;20040;-79
2023/04/11 02:37:35;;;;;;;3.00;0.98;;;;;;;8.36;100.00;92628.63;2039816;28;20040;-78
2023/04/11 02:38:53;;;;;;;1.75;1.00;;;;;;;8.32;100.00;92616.13;2063079;28;20695;-79
2023/04/11 02:40:00;;;;;;;2.70;1.38;;;;;;;8.33;100.00;92612.28;2057376;28;20041;-78
2023/04/11 02:41:20;;;;;;;;;;;;;;;;;;;;;
2023/04/11 02:42:34;;;;;;;1.25;1.10;;;;;;;8.25;100.00;92616.28;2106988;28;20035;-79
2023/04/11 02:43:43;;;;;;;1.48;1.00;;;;;;;8.19;100.00;92611.84;2104769;28;20032;-79
2023/04/11 02:44:57;;;;;;;1.77;1.00;;;;;;;8.08;100.00;92610.16;2104322;28;20109;-79
2023/04/11 02:46:14;;;;;;;2.00;0.98;;;;;;;7.98;100.00;92599.72;2100719;28;20040;-79
2023/04/11 02:47:29;;;;;;;1.30;1.00;;;;;;;8.10;100.00;92609.00;2105033;28;20051;-79
2023/04/11 02:48:40;;;;;;;1.17;1.00;;;;;;;8.21;100.00;92609.50;2096488;28;20036;-78
2023/04/11 02:50:28;;;;;;;2.35;1.08;;;;;;;8.11;100.00;92619.22;2099172;28;20470;-79
2023/04/11 02:52:37;;;;;;;;;;;;;;;;;;;;;
2023/04/11 02:54:38;;;;;;;1.38;1.00;;;;;;;8.30;100.00;92629.13;2085213;28;20129;-79
2023/04/11 02:58:51;;;;;;;1.35;0.82;;;;;;;8.43;100.00;92615.94;2086024;28;20534;-79
2023/04/11 03:00:08;;;;;;;1.65;1.15;;;;;;;8.28;100.00;92612.03;2104174;28;20029;-78
2023/04/11 03:01:20;;;;;;;3.53;1.30;;;;;;;8.23;100.00;92601.88;2100781;28;20524;-80
2023/04/11 03:09:04;;;;;;;1.48;1.15;;;;;;;8.28;100.00;92591.47;2035727;29;20074;-80
2023/04/11 03:47:27;;;;;;;1.70;1.13;;;;;;;8.30;100.00;92615.78;1961510;30;20497;-80
2023/04/11 03:56:17;;;;;;;1.27;0.77;;;;;;;8.42;100.00;92622.41;1955720;30;20044;-79
2023/04/11 04:11:25;;;;;;;1.45;0.70;;;;;;;8.15;100.00;92613.84;1946327;30;20048;-78
2023/04/11 04:12:45;;;;;;;0.85;0.70;;;;;;;8.07;100.00;92623.88;1987534;29;20111;-78
2023/04/11 04:14:37;;;;;;;0.68;0.68;;;;;;;7.98;100.00;92634.31;2024617;29;20371;-78
2023/04/11 04:16:06;;;;;;;1.35;0.80;;;;;;;7.94;100.00;92629.06;2054225;28;20881;-78
2023/04/11 04:17:14;;;;;;;0.65;0.60;;;;;;;8.03;100.00;92631.16;2082920;28;20032;-79
2023/04/11 04:32:46;;;;;;;1.55;0.80;;;;;;;8.01;100.00;92626.28;2030571;29;20044;-77
2023/04/11 04:34:20;;;;;;;4.28;0.98;;;;;;;7.97;100.00;92632.81;2049535;28;20063;-77
2023/04/11 04:35:58;;;;;;;0.93;0.82;;;;;;;8.03;100.00;92637.28;2024370;29;20702;-79
2023/04/11 04:37:20;;;;;;;1.05;0.85;;;;;;;8.41;100.00;92644.13;2044742;28;20054;-77
2023/04/11 04:38:29;;;;;;;0.95;0.50;;;;;;;8.32;100.00;92634.75;2046813;28;20703;-79
2023/04/11 04:39:36;;;;;;;0.93;0.50;;;;;;;8.21;100.00;92636.91;2055597;28;20041;-77
2023/04/11 04:40:57;;;;;;;0.93;0.77;;;;;;;8.21;100.00;92662.75;2043144;29;20165;-79
2023/04/11 04:42:10;;;;;;;0.68;0.60;;;;;;;8.28;100.00;92719.28;2094049;28;20071;-78
2023/04/11 04:43:18;;;;;;;1.02;0.30;;;;;;;7.78;100.00;92704.25;2098581;28;20079;-80
2023/04/11 04:44:27;;;;;;;0.30;0.30;;;;;;;7.29;100.00;92717.25;2095128;28;20143;-79
2023/04/11 04:45:33;;;;;;;2.45;0.40;;;;;;;6.74;100.00;92715.00;2098069;28;20043;-75
2023/04/11 04:46:40;;;;;;;0.98;0.20;;;;;;;6.53;100.00;92689.50;2090617;28;20033;-80
2023/04/11 04:47:46;;;;;;;0.30;0.30;;;;;;;6.42;100.00;92723.41;2089359;28;20041;-79
2023/04/11 04:48:56;;;;;;;0.50;0.25;;;;;;;6.28;100.00;92721.69;2087981;28;20048;-77
2023/04/11 04:50:00;;;;;;;;;;;;;;;6.17;100.00;92729.75;2090634;28;20032;-77
2023/04/11 04:51:06;;;;;;;0.52;0.20;;;;;;;5.96;100.00;92740.59;2091774;28;20267;-77
2023/04/11 04:52:07;;;;;;;0.10;0.10;;;;;;;5.86;100.00;92731.59;2092006;28;20039;-78
2023/04/11 04:53:14;;;;;;;0.30;0.13;;;;;;;5.77;100.00;92737.34;2088014;28;20386;-80
2023/04/11 04:54:26;;;;;;;0.30;0.20;;;;;;;5.80;100.00;92727.88;2097257;28;20032;-80
2023/04/11 04:55:30;;;;;;;0.20;0.13;;;;;;;5.63;100.00;92726.13;2088993;28;20107;-80
2023/04/11 04:56:35;;;;;;;2.40;0.20;;;;;;;5.45;100.00;92716.44;2080015;28;20124;-79
2023/04/11 04:57:42;;;;;;;0.10;0.10;;;;;;;5.48;100.00;92728.91;2079715;28;20040;-79
2023/04/11 04:58:45;;;;;;;0.28;0.20;;;;;;;5.40;100.00;92732.00;2081635;28;20704;-80
2023/04/11 04:59:53;;;;;;;0.50;0.30;;;;;;;5.35;100.00;92735.81;2095637;28;20024;-77
2023/04/11 05:01:07;;;;;;;0.47;0.15;;;;;;;5.14;100.00;92752.66;2090492;28;20030;-79
2023/04/11 05:02:12;;;;;;;0.43;0.20;;;;;;;5.13;100.00;92748.50;2096712;28;20549;-78
2023/04/11 05:03:19;;;;;;;0.20;0.20;;;;;;;4.99;100.00;92749.34;2095918;28;20033;-77
2023/04/11 05:04:25;;;;;;;0.30;0.30;;;;;;;5.02;100.00;92759.16;2095838;28;20029;-79
2023/04/11 05:05:31;;;;;;;0.20;0.20;;;;;;;5.04;100.00;92764.81;2087890;28;20020;-78
2023/04/11 05:06:47;;;;;;;0.22;0.22;;;;;;;5.08;100.00;92750.81;2081390;28;20057;-78
2023/04/11 05:07:52;;;;;;;0.10;0.10;;;;;;;5.00;100.00;92752.75;2072353;28;20034;-78
2023/04/11 05:08:59;;;;;;;0.40;0.40;;;;;;;5.00;100.00;92758.81;2072924;28;20098;-79
2023/04/11 05:10:05;;;;;;;0.10;0.10;;;;;;;5.08;100.00;92777.28;2076356;28;20541;-78
2023/04/11 05:11:28;;;;;;;0.50;0.40;;;;;;;5.00;100.00;92771.28;2084499;28;20078;-77
2023/04/11 05:12:33;;;;;;;0.47;0.40;;;;;;;4.92;100.00;92770.59;2083718;28;20021;-78
2023/04/11 05:13:40;;;;;;;0.77;0.47;;;;;;;4.81;100.00;92777.84;2080605;28;20036;-78
2023/04/11 05:14:42;;;;;;;0.32;0.32;;;;;;;4.76;100.00;92778.25;2074460;28;20033;-78
2023/04/11 05:15:50;;;;;;;0.55;0.40;;;;;;;4.67;100.00;92781.31;2072032;28;20042;-77
2023/04/11 05:16:52;;;;;;;0.60;0.40;;;;;;;4.64;100.00;92768.09;2089456;28;20418;-77
2023/04/11 05:18:00;;;;;;;0.55;0.40;;;;;;;4.54;100.00;92775.69;2098894;28;20040;-77
2023/04/11 05:19:08;;;;;;;0.50;0.28;;;;;;;4.73;100.00;92779.00;2087928;28;20083;-77
2023/04/11 05:20:18;;;;;;;0.17;0.17;;;;;;;4.68;100.00;92795.31;2088538;28;20056;-77
2023/04/11 05:21:27;;;;;;;;;;;;;;;4.72;100.00;92782.81;2089523;28;20037;-79
2023/04/11 05:22:33;;;;;;;0.50;0.32;;;;;;;4.71;100.00;92778.66;2077730;28;19936;-78
2023/04/11 05:23:43;;;;;;;0.88;0.32;;;;;;;4.67;100.00;92770.72;2081921;28;20034;-79
2023/04/11 05:24:50;;;;;;;0.55;0.22;;;;;;;4.65;100.00;92772.25;2084266;28;20407;-75
2023/04/11 05:26:00;;;;;;;0.30;0.20;;;;;;;4.66;100.00;92777.16;2090076;28;20021;-74
2023/04/11 05:27:09;;;;;;;0.70;0.20;;;;;;;4.71;100.00;92794.53;2099159;28;20035;-77
2023/04/11 05:28:25;;;;;;;1.42;0.30;;;;;;;4.65;100.00;92791.53;2094456;28;20403;-75
2023/04/11 05:29:29;;;;;;;0.45;0.30;;;;;;;4.60;100.00;92799.13;2091166;28;20497;-77
2023/04/11 05:30:34;;;;;;;0.60;0.40;;;;;;;4.44;100.00;92791.63;2100224;28;20052;-74
2023/04/11 05:31:40;;;;;;;0.98;0.30;;;;;;;4.39;100.00;92790.16;2103792;28;20036;-77
2023/04/11 05:32:41;;;;;;;0.63;0.43;;;;;;;4.28;100.00;92792.81;2093155;28;20028;-77
2023/04/11 05:33:43;;;;;;;1.35;0.40;;;;;;;4.27;100.00;92791.31;2096010;28;20032;-77
2023/04/11 05:34:57;;;;;;;2.55;0.40;;;;;;;4.12;100.00;92795.13;2095942;28;20078;-77
2023/04/11 05:35:59;;;;;;;1.75;0.30;;;;;;;4.13;100.00;92809.13;2089899;28;20032;-77
2023/04/11 05:37:08;;;;;;;0.73;0.30;;;;;;;4.12;100.00;92797.00;2100261;28;20032;-78
2023/04/11 05:38:17;;;;;;;0.40;0.30;;;;;;;4.09;100.00;92816.31;2099684;28;20035;-77
2023/04/11 05:39:21;;;;;;;0.40;0.40;;;;;;;4.14;100.00;92800.06;2104693;28;20453;-78
2023/04/11 05:40:30;;;;;;;1.52;0.40;;;;;;;4.13;100.00;92793.25;2098885;28;20579;-77
2023/04/11 05:41:37;;;;;;;0.40;0.30;;;;;;;4.04;100.00;92789.13;2087529;28;20030;-78
2023/04/11 05:42:41;;;;;;;1.92;0.32;;;;;;;4.11;100.00;92796.25;2092679;28;20899;-78
2023/04/11 05:44:01;;;;;;;2.30;0.40;;;;;;;4.04;100.00;92802.34;2100510;28;20052;-78
2023/04/11 05:45:08;;;;;;;0.32;0.32;;;;;;;3.98;100.00;92814.44;2102528;28;20024;-79
2023/04/11 05:46:15;;;;;;;1.13;0.38;;;;;;;3.90;100.00;92807.63;2100738;28;20024;-78
2023/04/11 05:47:22;;;;;;;1.55;0.52;;;;;;;3.95;100.00;92804.63;2095840;28;20056;-78
2023/04/11 05:48:23;;;;;;;0.68;0.40;;;;;;;4.02;100.00;92807.25;2094239;28;20036;-78
2023/04/11 05:49:27;;;;;;;0.30;0.30;;;;;;;4.12;100.00;92805.69;2085082;28;20549;-77
2023/04/11 05:50:28;;;;;;;0.75;0.40;;;;;;;4.07;100.00;92802.69;2097274;28;20032;-77
2023/04/11 05:51:37;;;;;;;0.55;0.30;;;;;;;4.00;100.00;92811.41;2102388;28;20031;-78
2023/04/11 05:52:41;;;;;;;0.30;0.30;;;;;;;4.01;100.00;92813.66;2101857;28;20262;-78
2023/04/11 05:55:41;;;;;;;0.68;0.40;;;;;;;3.97;100.00;92814.81;2083590;28;20040;-78
2023/04/11 05:56:46;;;;;;;1.48;0.20;;;;;;;3.99;100.00;92813.28;2102130;28;20035;-77
2023/04/11 05:57:52;;;;;;;0.30;0.30;;;;;;;3.90;100.00;92809.53;2102034;28;20035;-77
2023/04/11 05:59:15;;;;;;;0.20;0.20;;;;;;;4.00;100.00;92814.06;2092701;28;20044;-77
2023/04/11 06:00:19;;;;;;;0.45;0.35;;;;;;;3.86;100.00;92806.88;2088014;28;20693;-77
2023/04/11 06:01:30;;;;;;;0.63;0.43;;;;;;;4.00;100.00;92814.81;2106615;28;20169;-77
2023/04/11 06:02:32;;;;;;;0.20;0.20;;;;;;;4.04;100.00;92820.84;2104072;28;20556;-77
2023/04/11 06:03:39;;;;;;;1.05;0.30;;;;;;;4.07;100.00;92814.03;2097814;28;20043;-77
2023/04/11 06:04:40;;;;;;;0.30;0.30;;;;;;;4.03;100.00;92818.56;2081144;28;20032;-77
2023/04/11 06:05:42;;;;;;;0.50;0.30;;;;;;;3.94;100.00;92823.50;2089709;28;20540;-77
2023/04/11 06:06:43;;;;;;;0.30;0.30;;;;;;;4.04;100.00;92820.09;2103057;28;20035;-79
2023/04/11 06:07:45;;;;;;;1.75;0.60;;;;;;;4.02;100.00;92819.72;2098276;28;20524;-78
2023/04/11 06:08:46;;;;;;;0.55;0.30;;;;;;;4.02;100.00;92819.72;2098239;28;20028;-78
2023/04/11 06:09:47;;;;;;;0.40;0.30;;;;;;;4.09;100.00;92825.00;2098071;28;20505;-78
2023/04/11 06:10:49;;;;;;;1.83;0.40;;;;;;;3.99;100.00;92823.84;2098151;28;20059;-78
2023/04/11 06:11:50;;;;;;;0.47;0.20;;;;;;;3.96;100.00;92819.34;2102620;28;20467;-78
2023/04/11 06:12:52;;;;;;;0.85;0.30;;;;;;;4.00;100.00;92822.00;2097967;28;20545;-78
2023/04/11 06:13:53;;;;;;;0.22;0.20;;;;;;;4.11;100.00;92811.38;2094058;28;20032;-78
2023/04/11 06:14:54;;;;;;;0.43;0.30;;;;;;;4.03;100.00;92805.34;2103188;28;20623;-78
2023/04/11 06:15:55;;;;;;;0.68;0.20;;;;;;;3.97;100.00;92804.25;2097949;28;20048;-78
2023/04/11 06:16:56;;;;;;;0.32;0.20;;;;;;;4.13;100.00;92814.41;2088871;28;20021;-78
2023/04/11 06:17:59;;;;;;;0.17;0.17;;;;;;;4.09;100.00;92809.13;2089557;28;20051;-78
2023/04/11 06:21:13;;;;;;;0.30;0.30;;;;;;;4.14;100.00;92821.22;2093557;28;20127;-77
2023/04/11 06:23:49;;;;;;;0.20;0.20;;;;;;;4.10;100.00;92825.75;2089150;28;20043;-78
2023/04/11 06:24:56;;;;;;;0.70;0.40;;;;;;;4.12;100.00;92826.84;2088901;28;20037;-79
2023/04/11 06:26:04;;;;;;;0.63;0.30;;;;;;;4.19;100.00;92823.47;2089851;28;20081;-78
2023/04/11 06:27:10;;;;;;;0.32;0.30;;;;;;;4.17;100.00;92826.50;2091625;28;20040;-79
2023/04/11 06:28:29;;;;;;;1.90;0.20;;;;;;;4.27;100.00;92820.41;2098866;28;20062;-79
2023/04/11 06:29:33;;;;;;;0.70;0.40;;;;;;;4.20;100.00;92817.03;2098923;28;20024;-78
2023/04/11 06:30:44;;;;;;;1.50;0.40;;;;;;;4.37;100.00;92820.75;2102856;28;20044;-78
2023/04/11 06:31:47;;;;;;;1.17;0.30;;;;;;;4.35;100.00;92810.56;2097482;28;20188;-78
2023/04/11 06:32:50;;;;;;;1.08;0.30;;;;;;;4.45;100.00;92828.28;2096340;28;20063;-78
2023/04/11 06:33:52;;;;;;;0.60;0.40;;;;;;;4.37;100.00;92824.16;2105810;28;20126;-79
2023/04/11 06:34:54;;;;;;;1.73;0.30;;;;;;;4.31;100.00;92831.00;2104414;28;20046;-78
2023/04/11 06:35:57;;;;;;;0.55;0.30;;;;;;;4.41;100.00;92818.84;2103640;28;20031;-77
2023/04/11 06:36:58;;;;;;;0.77;0.35;;;;;;;4.65;100.00;92833.88;2103305;28;20027;-77
2023/04/11 06:37:59;;;;;;;1.83;0.40;;;;;;;4.51;100.00;92837.34;2099165;28;20035;-77
2023/04/11 06:39:03;;;;;;;0.40;0.30;;;;;;;4.51;100.00;92839.97;2098037;28;20129;-78
2023/04/11 06:40:06;;;;;;;2.03;0.52;;;;;;;4.50;100.00;92835.84;2096219;28;20033;-77
2023/04/11 06:41:07;;;;;;;0.73;0.60;;;;;;;4.46;100.00;92844.91;2093444;28;20082;-78
2023/04/11 06:42:08;;;;;;;3.25;0.40;;;;;;;4.49;100.00;92852.84;2097861;28;20068;-77
2023/04/11 06:43:10;;;;;;;1.55;0.68;;;;;;;4.53;100.00;92858.91;2094586;28;20035;-78
2023/04/11 06:44:11;;;;;;;0.70;0.40;;;;;;;4.49;100.00;92846.81;2095654;28;20695;-78
2023/04/11 06:45:12;;;;;;;3.13;0.47;;;;;;;4.70;100.00;92840.69;2106668;28;20024;-77
2023/04/11 06:46:13;;;;;;;1.95;0.57;;;;;;;4.67;100.00;92847.50;2097684;28;20043;-78
2023/04/11 06:47:14;;;;;;;1.95;0.50;;;;;;;4.69;100.00;92849.75;2097704;28;20386;-77
2023/04/11 06:48:19;;;;;;;1.17;0.52;;;;;;;4.82;100.00;92845.53;2102318;28;20093;-78
2023/04/11 06:49:21;;;;;;;3.40;0.80;;;;;;;4.83;100.00;92846.28;2102078;28;20031;-78
2023/04/11 06:50:23;;;;;;;0.75;0.55;;;;;;;4.80;100.00;92843.28;2101972;28;20093;-77
2023/04/11 06:51:24;;;;;;;1.25;0.68;;;;;;;4.74;100.00;92847.47;2093858;28;20446;-79
2023/04/11 06:52:25;;;;;;;2.45;0.50;;;;;;;4.75;100.00;92840.28;2102167;28;20067;-79
2023/04/11 06:53:26;;;;;;;1.35;0.50;;;;;;;4.94;100.00;92839.06;2102652;28;20032;-78
2023/04/11 06:54:28;;;;;;;1.33;0.45;;;;;;;4.96;100.00;92850.78;2102959;28;20059;-79
2023/04/11 06:55:29;;;;;;;1.08;0.50;;;;;;;4.68;100.00;92835.00;2102395;28;20032;-78
2023/04/11 06:56:31;;;;;;;0.70;0.60;;;;;;;4.88;100.00;92844.00;2101018;28;20371;-78
2023/04/11 06:57:35;;;;;;;1.02;0.57;;;;;;;4.85;100.00;92844.78;2100558;28;20747;-79
2023/04/11 06:58:36;;;;;;;1.08;0.50;;;;;;;4.67;100.00;92841.44;2086228;28;20041;-78
2023/04/11 06:59:37;;;;;;;3.25;0.70;;;;;;;4.67;100.00;92844.84;2080687;28;20045;-78
2023/04/11 07:00:38;;;;;;;3.17;0.90;;;;;;;4.53;100.00;92850.94;2087270;28;20041;-79
2023/04/11 07:01:39;;;;;;;1.23;0.70;;;;;;;4.56;100.00;92846.78;2089152;28;20763;-77